Time;durP1;ratioP1;P1;durP2;ratioP2;P2;SDS_P1;SDS_P2;PMS_P1;PMS_P2;Temp;Humidity;BMP_temperature;BMP_pressure;BME280_temperature;BME280_humidity;BME280_pressure;Samples;Min_cycle;Max_cycle;Signal;HPM_P1;HPM_P2
2023/12/16 00:00:19;;;;;;;;;;;;;;;6.05;100.00;103832.28;5093194;28;19961;-77
2023/12/16 00:02:44;;;;;;;;;;;;;;;6.06;100.00;103836.66;5100050;28;20322;-78
2023/12/16 00:05:10;;;;;;;;;;;;;;;6.05;100.00;103840.09;5074461;28;19920;-77
2023/12/16 00:07:35;;;;;;;;;;;;;;;6.06;100.00;103849.66;5094635;28;20300;-77
2023/12/16 00:10:00;;;;;;;;;;;;;;;6.05;100.00;103854.00;5094437;28;20345;-77
2023/12/16 00:12:27;;;;;;;;;;;;;;;6.05;100.00;103855.72;5110672;28;19930;-77
2023/12/16 00:14:52;;;;;;;;;;;;;;;6.04;100.00;103841.78;5093868;28;20373;-77
2023/12/16 00:17:18;;;;;;;;;;;;;;;6.05;100.00;103847.91;5092496;28;19916;-77
2023/12/16 00:19:43;;;;;;;;;;;;;;;6.04;100.00;103836.56;5074306;28;19916;-77
2023/12/16 00:22:08;;;;;;;;;;;;;;;6.04;100.00;103840.88;5073669;28;19920;-78
2023/12/16 00:24:34;;;;;;;;;;;;;;;6.04;100.00;103852.19;5074136;28;20301;-77
2023/12/16 00:27:01;;;;;;;;;;;;;;;6.03;100.00;103841.69;5073856;28;19959;-77
2023/12/16 00:29:26;;;;;;;;;;;;;;;6.03;100.00;103840.00;5108345;28;19979;-77
2023/12/16 00:31:52;;;;;;;;;;;;;;;6.03;100.00;103833.88;5093882;28;19927;-78
2023/12/16 00:34:17;;;;;;;;;;;;;;;6.02;100.00;103827.78;5094082;28;20053;-78
2023/12/16 00:36:43;;;;;;;;;;;;;;;6.02;100.00;103822.59;5111225;28;19912;-78
2023/12/16 00:39:09;;;;;;;;;;;;;;;6.01;100.00;103820.78;5095415;28;19916;-78
2023/12/16 00:41:34;;;;;;;;;;;;;;;6.03;100.00;103818.25;5073571;28;19920;-77
2023/12/16 00:43:59;;;;;;;;;;;;;;;6.02;100.00;103806.97;5073058;28;19924;-78
2023/12/16 00:46:25;;;;;;;;;;;;;;;6.03;100.00;103816.56;5090702;28;19916;-78
2023/12/16 00:48:50;;;;;;;;;;;;;;;6.02;100.00;103819.97;5077403;28;19924;-76
2023/12/16 00:51:16;;;;;;;;;;;;;;;6.02;100.00;103825.19;5073668;28;20335;-77
2023/12/16 00:53:42;;;;;;;;;;;;;;;6.04;100.00;103827.88;5109381;28;19924;-77
2023/12/16 00:56:08;;;;;;;;;;;;;;;6.03;100.00;103824.38;5090093;28;19920;-77
2023/12/16 00:58:33;;;;;;;;;;;;;;;6.04;100.00;103825.28;5094011;28;19923;-77
2023/12/16 01:01:02;;;;;;;;;;;;;;;6.02;100.00;103826.88;5101831;28;19923;-76
2023/12/16 01:03:28;;;;;;;;;;;;;;;6.03;100.00;103831.28;5102625;28;19948;-77
2023/12/16 01:05:53;;;;;;;;;;;;;;;6.02;100.00;103826.88;5111223;28;19954;-77
2023/12/16 01:08:19;;;;;;;;;;;;;;;6.04;100.00;103833.09;5116885;27;19951;-77
2023/12/16 01:10:44;;;;;;;;;;;;;;;6.03;100.00;103833.88;5091510;28;19958;-77
2023/12/16 01:13:09;;;;;;;;;;;;;;;6.05;100.00;103832.28;5096386;28;19932;-77
2023/12/16 01:15:37;;;;;;;;;;;;;;;6.03;100.00;103831.28;5105862;28;19996;-77
2023/12/16 01:18:03;;;;;;;;;;;;;;;6.03;100.00;103829.59;5090013;28;20018;-77
2023/12/16 01:20:28;;;;;;;;;;;;;;;6.00;100.00;103833.72;5101993;27;20010;-77
2023/12/16 01:22:54;;;;;;;;;;;;;;;6.01;100.00;103817.28;5087574;28;19924;-77
2023/12/16 01:25:19;;;;;;;;;;;;;;;5.99;100.00;103819.81;5079093;28;19923;-77
2023/12/16 01:27:45;;;;;;;;;;;;;;;5.99;100.00;103822.41;5096562;28;20388;-77
2023/12/16 01:30:11;;;;;;;;;;;;;;;6.00;100.00;103820.69;5113219;28;19964;-77
2023/12/16 01:32:36;;;;;;;;;;;;;;;5.99;100.00;103822.41;5093598;28;20343;-76
2023/12/16 01:35:02;;;;;;;;;;;;;;;6.03;100.00;103819.19;5096845;28;20345;-77
2023/12/16 01:37:27;;;;;;;;;;;;;;;6.03;100.00;103807.84;5092918;28;19916;-76
2023/12/16 01:39:55;;;;;;;;;;;;;;;6.00;100.00;103803.38;5092339;28;19916;-76
2023/12/16 01:42:22;;;;;;;;;;;;;;;6.00;100.00;103800.75;5108471;27;19926;-76
2023/12/16 01:44:57;;;;;;;;;;;;;;;6.02;100.00;103800.84;5101206;28;20140;-77
2023/12/16 01:47:22;;;;;;;;;;;;;;;6.04;100.00;103814.84;5109754;27;19984;-78
2023/12/16 01:49:48;;;;;;;;;;;;;;;6.04;100.00;103804.44;5090299;27;20006;-77
2023/12/16 01:52:14;;;;;;;;;;;;;;;6.04;100.00;103810.53;5118255;27;19919;-77
2023/12/16 01:54:40;;;;;;;;;;;;;;;6.04;100.00;103804.44;5099809;28;19924;-78
2023/12/16 01:57:06;;;;;;;;;;;;;;;6.04;100.00;103804.44;5095487;28;20392;-77
2023/12/16 01:59:31;;;;;;;;;;;;;;;6.05;100.00;103807.13;5100869;28;20380;-77
2023/12/16 02:01:57;;;;;;;;;;;;;;;6.03;100.00;103797.44;5098634;27;19974;-77
2023/12/16 02:04:23;;;;;;;;;;;;;;;6.05;100.00;103801.91;5109080;28;19920;-77
2023/12/16 02:06:48;;;;;;;;;;;;;;;6.10;100.00;103804.78;5098574;28;20002;-77
2023/12/16 02:09:16;;;;;;;;;;;;;;;6.04;100.00;103805.31;5088016;27;20383;-77
2023/12/16 02:11:41;;;;;;;;;;;;;;;6.03;100.00;103815.66;5094252;28;19957;-78
2023/12/16 02:14:06;;;;;;;;;;;;;;;5.99;100.00;103806.81;5098507;27;19916;-77
2023/12/16 02:16:32;;;;;;;;;;;;;;;5.99;100.00;103818.91;5111945;27;19916;-78
2023/12/16 02:18:57;;;;;;;;;;;;;;;5.96;100.00;103821.31;5100639;28;19964;-77
2023/12/16 02:21:23;;;;;;;;;;;;;;;5.95;99.67;103817.81;5092973;28;19927;-77
2023/12/16 02:23:48;;;;;;;;;;;;;;;5.94;100.00;103818.63;5115420;27;19924;-76
2023/12/16 02:26:13;;;;;;;;;;;;;;;5.90;100.00;103817.56;5124960;27;19915;-77
2023/12/16 02:28:39;;;;;;;;;;;;;;;5.89;100.00;103820.09;5095623;28;20435;-76
2023/12/16 02:31:05;;;;;;;;;;;;;;;5.86;100.00;103825.09;5112556;27;19916;-76
2023/12/16 02:33:32;;;;;;;;;;;;;;;5.84;100.00;103824.13;5109505;27;20395;-77
2023/12/16 02:36:02;;;;;;;;;;;;;;;5.82;100.00;103824.06;5117814;27;19915;-77
2023/12/16 02:38:28;;;;;;;;;;;;;;;5.77;100.00;103822.00;5104787;27;19923;-78
2023/12/16 02:40:53;;;;;;;;;;;;;;;5.70;100.00;103816.47;5095090;27;19916;-77
2023/12/16 02:43:21;;;;;;;;;;;;;;;5.61;100.00;103817.63;5096032;28;19928;-77
2023/12/16 02:45:46;;;;;;;;;;;;;;;5.50;100.00;103812.72;5104731;27;19958;-78
2023/12/16 02:48:11;;;;;;;;;;;;;;;5.44;100.00;103812.34;5086513;27;19993;-77
2023/12/16 02:50:36;;;;;;;;;;;;;;;5.39;100.00;103816.41;5098446;28;19916;-77
2023/12/16 02:53:02;;;;;;;;;;;;;;;5.34;100.00;103812.66;5088055;27;20019;-77
2023/12/16 02:55:27;;;;;;;;;;;;;;;5.31;100.00;103805.56;5100106;28;19927;-78
2023/12/16 02:57:53;;;;;;;;;;;;;;;5.31;100.00;103802.06;5095920;28;19920;-77
2023/12/16 03:00:18;;;;;;;;;;;;;;;5.29;100.00;103814.09;5114699;27;20440;-77
2023/12/16 03:02:43;;;;;;;;;;;;;;;5.27;100.00;103815.69;5091621;28;19926;-77
2023/12/16 03:05:09;;;;;;;;;;;;;;;5.24;100.00;103816.41;5093691;28;20032;-77
2023/12/16 03:07:34;;;;;;;;;;;;;;;5.23;100.00;103819.84;5094051;27;19926;-77
2023/12/16 03:10:02;;;;;;;;;;;;;;;5.23;100.00;103808.53;5098565;28;19923;-77
2023/12/16 03:12:27;;;;;;;;;;;;;;;5.25;100.00;103806.94;5095420;28;19980;-77
2023/12/16 03:14:52;;;;;;;;;;;;;;;5.24;100.00;103818.13;5091020;27;19951;-77
2023/12/16 03:17:18;;;;;;;;;;;;;;;5.24;100.00;103811.22;5097973;28;19924;-77
2023/12/16 03:19:43;;;;;;;;;;;;;;;5.25;100.00;103812.13;5095406;28;20381;-77
2023/12/16 03:22:09;;;;;;;;;;;;;;;5.25;100.00;103812.13;5110371;28;19922;-77
2023/12/16 03:24:34;;;;;;;;;;;;;;;5.23;100.00;103805.94;5085149;27;19920;-77
2023/12/16 03:27:02;;;;;;;;;;;;;;;5.23;100.00;103808.53;5099824;28;20299;-77
2023/12/16 03:29:28;;;;;;;;;;;;;;;5.23;100.00;103814.63;5113224;27;19916;-77
2023/12/16 03:31:54;;;;;;;;;;;;;;;5.26;100.00;103814.81;5122188;27;19921;-77
2023/12/16 03:34:20;;;;;;;;;;;;;;;5.27;100.00;103795.81;5075319;28;19969;-77
2023/12/16 03:36:45;;;;;;;;;;;;;;;5.28;100.00;103802.78;5105825;27;19923;-77
2023/12/16 03:39:11;;;;;;;;;;;;;;;5.34;100.00;103803.16;5094401;28;19965;-77
2023/12/16 03:41:36;;;;;;;;;;;;;;;5.31;100.00;103809.88;5100527;27;20006;-77
2023/12/16 03:44:02;;;;;;;;;;;;;;;5.32;100.00;103817.75;5114047;27;20287;-77
2023/12/16 03:46:27;;;;;;;;;;;;;;;5.31;100.00;103802.94;5123262;27;19915;-77
2023/12/16 03:48:52;;;;;;;;;;;;;;;5.32;100.00;103803.88;5094545;28;19954;-78
2023/12/16 03:51:20;;;;;;;;;;;;;;;5.29;100.00;103808.91;5104962;28;19934;-77
2023/12/16 03:53:45;;;;;;;;;;;;;;;5.28;100.00;103802.78;5149716;22;19924;-77
2023/12/16 03:56:11;;;;;;;;;;;;;;;5.32;100.00;103803.88;5155378;23;20300;-75
2023/12/16 03:58:36;;;;;;;;;;;;;;;5.31;100.00;103809.88;5124664;22;19932;-76
2023/12/16 05:09:12;;;;;;;;;;;;;;;5.36;100.00;103793.72;5062657;28;20282;-75
2023/12/16 05:11:38;;;;;;;;;;;;;;;5.30;100.00;103796.00;5058319;28;19924;-75
2023/12/16 05:14:03;;;;;;;;;;;;;;;5.27;100.00;103800.09;5073728;28;19975;-75
2023/12/16 05:16:29;;;;;;;;;;;;;;;5.22;100.00;103801.56;5080980;28;20276;-76
2023/12/16 05:18:54;;;;;;;;;;;;;;;5.17;100.00;103809.97;5053452;28;19927;-75
2023/12/16 05:21:19;;;;;;;;;;;;;;;5.09;100.00;103806.03;5061825;28;19986;-77
2023/12/16 05:23:45;;;;;;;;;;;;;;;5.05;100.00;103809.25;5061171;28;19920;-76
2023/12/16 05:26:10;;;;;;;;;;;;;;;5.02;100.00;103809.06;5056295;28;19917;-76
2023/12/16 05:28:35;;;;;;;;;;;;;;;4.98;100.00;103809.69;5086164;28;20250;-77
2023/12/16 05:31:01;;;;;;;;;;;;;;;5.00;100.00;103805.50;5054341;28;19929;-77
2023/12/16 05:33:28;;;;;;;;;;;;;;;4.94;100.00;103810.31;5056134;28;20389;-76
2023/12/16 05:35:54;;;;;;;;;;;;;;;4.91;100.00;103800.63;5073253;28;19917;-77
2023/12/16 05:38:19;;;;;;;;;;;;;;;4.86;100.00;103802.97;5067689;28;19912;-76
2023/12/16 05:40:44;;;;;;;;;;;;;;;4.84;100.00;103802.00;5055361;28;19929;-75
2023/12/16 05:43:11;;;;;;;;;;;;;;;4.81;100.00;103801.81;5051075;28;20255;-74
2023/12/16 05:45:36;;;;;;;;;;;;;;;4.77;100.00;103805.03;5055548;28;20330;-74
2023/12/16 05:48:01;;;;;;;;;;;;;;;4.74;100.00;103815.25;5055844;28;19920;-74
2023/12/16 05:50:27;;;;;;;;;;;;;;;4.67;100.00;103806.16;5051773;28;19974;-75
2023/12/16 05:52:52;;;;;;;;;;;;;;;4.66;100.00;103812.16;5071548;28;19932;-73
2023/12/16 05:55:17;;;;;;;;;;;;;;;4.65;100.00;103804.28;5076715;28;19916;-75
2023/12/16 05:57:43;;;;;;;;;;;;;;;4.66;100.00;103808.69;5041001;28;19928;-76
2023/12/16 06:00:09;;;;;;;;;;;;;;;4.63;100.00;103800.72;5070026;28;20054;-75
2023/12/16 06:02:37;;;;;;;;;;;;;;;4.61;100.00;103794.50;5046798;28;19921;-73
2023/12/16 06:05:03;;;;;;;;;;;;;;;4.63;100.00;103792.91;5053398;28;19923;-75
2023/12/16 06:07:28;;;;;;;;;;;;;;;4.56;100.00;103796.81;5035800;28;19923;-75
2023/12/16 06:09:54;;;;;;;;;;;;;;;4.55;100.00;103799.34;5047707;28;19929;-76
2023/12/16 06:12:19;;;;;;;;;;;;;;;4.51;100.00;103804.34;5035297;28;19952;-75
2023/12/16 06:14:46;;;;;;;;;;;;;;;4.49;100.00;103805.94;5050663;28;19932;-74
2023/12/16 06:17:11;;;;;;;;;;;;;;;4.50;100.00;103812.94;5051043;28;19917;-75
2023/12/16 06:19:37;;;;;;;;;;;;;;;4.51;100.00;103814.72;5066967;28;20016;-74
2023/12/16 06:22:02;;;;;;;;;;;;;;;4.51;100.00;103816.41;5052169;28;19982;-73
2023/12/16 06:24:28;;;;;;;;;;;;;;;4.49;100.00;103813.72;5064925;28;19935;-74
2023/12/16 06:26:53;;;;;;;;;;;;;;;4.49;100.00;103803.34;5068509;28;19966;-75
2023/12/16 06:29:18;;;;;;;;;;;;;;;4.54;100.00;103802.72;5045912;28;19996;-74
2023/12/16 06:31:44;;;;;;;;;;;;;;;4.55;100.00;103797.63;5053237;28;19920;-74
2023/12/16 06:34:09;;;;;;;;;;;;;;;4.58;100.00;103795.22;5068636;28;19917;-73
2023/12/16 06:36:35;;;;;;;;;;;;;;;4.57;100.00;103796.03;5048663;28;19933;-74
2023/12/16 06:39:00;;;;;;;;;;;;;;;4.58;100.00;103787.41;5052757;28;19921;-74
2023/12/16 06:41:29;;;;;;;;;;;;;;;4.61;100.00;103794.50;5036596;28;20299;-75
2023/12/16 06:43:54;;;;;;;;;;;;;;;4.61;100.00;103802.28;5051757;28;20019;-75
2023/12/16 06:46:19;;;;;;;;;;;;;;;4.60;100.00;103795.34;5071397;28;20014;-76
2023/12/16 06:48:45;;;;;;;;;;;;;;;4.59;100.00;103803.91;5047111;28;19920;-76
2023/12/16 06:51:10;;;;;;;;;;;;;;;4.54;100.00;103797.53;5048834;28;20077;-77
2023/12/16 06:53:36;;;;;;;;;;;;;;;4.54;100.00;103805.31;5060856;28;19955;-77
2023/12/16 06:56:02;;;;;;;;;;;;;;;4.48;100.00;103805.84;5042553;28;20281;-76
2023/12/16 06:58:27;;;;;;;;;;;;;;;4.44;100.00;103807.38;5047325;28;19920;-74
2023/12/16 07:00:52;;;;;;;;;;;;;;;4.40;100.00;103815.78;5048020;28;20388;-75
2023/12/16 07:03:18;;;;;;;;;;;;;;;4.40;100.00;103817.50;5077127;28;20342;-76
2023/12/16 07:05:43;;;;;;;;;;;;;;;4.37;100.00;103820.78;5060078;28;20442;-75
2023/12/16 07:08:08;;;;;;;;;;;;;;;4.35;100.00;103817.19;5037359;28;19924;-74
2023/12/16 07:10:34;;;;;;;;;;;;;;;4.31;100.00;103810.00;5035556;28;19932;-74
2023/12/16 07:12:59;;;;;;;;;;;;;;;4.32;100.00;103814.41;5045290;28;19928;-76
2023/12/16 07:15:24;;;;;;;;;;;;;;;4.31;100.00;103816.09;5034231;28;19927;-75
2023/12/16 07:17:50;;;;;;;;;;;;;;;4.32;100.00;103817.91;5053402;28;20373;-75
2023/12/16 07:20:15;;;;;;;;;;;;;;;4.36;100.00;103813.78;5040835;28;20354;-75
2023/12/16 07:22:41;;;;;;;;;;;;;;;4.37;100.00;103823.38;5047455;28;20378;-75
2023/12/16 07:25:06;;;;;;;;;;;;;;;4.39;100.00;103821.75;5053409;28;19954;-75
2023/12/16 07:27:32;;;;;;;;;;;;;;;4.37;100.00;103825.97;5040032;28;19921;-74
2023/12/16 07:29:57;;;;;;;;;;;;;;;4.38;100.00;103838.13;5055651;28;19912;-74
2023/12/16 07:32:23;;;;;;;;;;;;;;;4.40;100.00;103839.16;5068999;28;20304;-75
2023/12/16 07:34:53;;;;;;;;;;;;;;;4.38;100.00;103838.13;5048520;28;19963;-76
2023/12/16 07:37:21;;;;;;;;;;;;;;;4.40;100.00;103841.75;5043493;28;19921;-76
2023/12/16 07:39:47;;;;;;;;;;;;;;;4.44;100.00;103843.72;5044610;28;20019;-76
2023/12/16 07:42:12;;;;;;;;;;;;;;;4.44;100.00;103846.31;5047159;28;20032;-76
2023/12/16 07:44:41;;;;;;;;;;;;;;;4.45;100.00;103844.63;5037415;28;20010;-77
2023/12/16 07:47:06;;;;;;;;;;;;;;;4.51;100.00;103832.91;5049584;28;19920;-76
2023/12/16 07:49:31;;;;;;;;;;;;;;;4.55;100.00;103836.59;5051042;28;19935;-76
2023/12/16 07:51:57;;;;;;;;;;;;;;;4.57;100.00;103827.19;5051815;28;19944;-76
2023/12/16 07:54:23;;;;;;;;;;;;;;;4.61;100.00;103833.47;5070011;28;20270;-76
2023/12/16 07:56:51;;;;;;;;;;;;;;;4.63;100.00;103839.66;5064761;28;19928;-73
2023/12/16 07:59:17;;;;;;;;;;;;;;;4.68;100.00;103839.16;5064783;28;19916;-73
2023/12/16 08:01:47;;;;;;;;;;;;;;;4.74;100.00;103842.91;5064558;28;20275;-76
2023/12/16 08:04:12;;;;;;;;;;;;;;;4.83;100.00;103846.97;5052104;28;20315;-76
2023/12/16 08:06:38;;;;;;;;;;;;;;;4.94;100.00;103857.09;5039119;28;20006;-75
2023/12/16 08:09:04;;;;;;;;;;;;;;;4.95;100.00;103864.97;5048305;28;20033;-76
2023/12/16 08:11:29;;;;;;;;;;;;;;;4.97;100.00;103863.38;5052781;28;19921;-76
2023/12/16 08:13:55;;;;;;;;;;;;;;;5.01;100.00;103854.97;5046611;28;19929;-76
2023/12/16 08:16:20;;;;;;;;;;;;;;;5.08;100.00;103864.00;5061821;28;20408;-76
2023/12/16 08:18:45;;;;;;;;;;;;;;;5.10;100.00;103869.31;5050206;28;19939;-76
2023/12/16 08:21:11;;;;;;;;;;;;;;;5.08;100.00;103866.59;5066444;28;19916;-76
2023/12/16 08:23:36;;;;;;;;;;;;;;;5.08;100.00;103864.00;5090414;28;20297;-76
2023/12/16 08:26:02;;;;;;;;;;;;;;;5.10;100.00;103870.22;5063024;28;20298;-76
2023/12/16 08:28:28;;;;;;;;;;;;;;;5.14;100.00;103867.00;5052040;28;19921;-76
2023/12/16 08:30:53;;;;;;;;;;;;;;;5.15;100.00;103871.38;5070273;28;20403;-75
2023/12/16 08:33:19;;;;;;;;;;;;;;;5.20;100.00;103875.16;5079535;28;20452;-74
2023/12/16 08:35:44;;;;;;;;;;;;;;;5.28;100.00;103866.91;5066982;28;19920;-73
2023/12/16 08:38:10;;;;;;;;;;;;;;;5.41;100.00;103872.00;5056531;28;20000;-75
2023/12/16 08:40:35;;;;;;;;;;;;;;;5.61;100.00;103875.75;5063259;28;20018;-75
2023/12/16 08:43:00;;;;;;;;;;;;;;;5.78;100.00;103878.44;5073268;28;19970;-75
2023/12/16 08:45:26;;;;;;;;;;;;;;;5.81;100.00;103874.31;5056632;28;19916;-75
2023/12/16 08:47:51;;;;;;;;;;;;;;;5.79;100.00;103878.53;5065263;28;19916;-74
2023/12/16 08:50:16;;;;;;;;;;;;;;;5.81;100.00;103874.31;5050316;28;19917;-75
2023/12/16 08:52:42;;;;;;;;;;;;;;;5.85;100.00;103870.19;5047794;28;19962;-75
2023/12/16 08:55:07;;;;;;;;;;;;;;;5.90;100.00;103864.44;5071956;28;19928;-74
2023/12/16 08:57:32;;;;;;;;;;;;;;;6.02;100.00;103869.44;5059629;28;19920;-76
2023/12/16 08:59:58;;;;;;;;;;;;;;;6.19;100.00;103859.06;5062982;28;19927;-74
2023/12/16 09:02:23;;;;;;;;;;;;;;;6.34;100.00;103866.81;5048348;28;19931;-75
2023/12/16 09:04:49;;;;;;;;;;;;;;;6.44;100.00;103869.09;5052861;28;19970;-75
2023/12/16 09:07:14;;;;;;;;;;;;;;;6.53;100.00;103874.81;5066082;28;20297;-75
2023/12/16 09:09:40;;;;;;;;;;;;;;;6.62;100.00;103878.72;5067657;28;19924;-74
2023/12/16 09:12:06;;;;;;;;;;;;;;;6.63;100.00;103880.53;5067927;28;20294;-74
2023/12/16 09:14:32;;;;;;;;;;;;;;;6.68;100.00;103889.47;5046944;28;20378;-75
2023/12/16 09:16:57;;;;;;;;;;;;;;;6.70;100.00;103880.03;5068086;28;19942;-74
2023/12/16 09:19:22;;;;;;;;;;;;;;;6.73;100.00;103873.25;5044305;28;19960;-77
2023/12/16 09:21:48;;;;;;;;;;;;;;;6.79;100.00;103875.28;5048617;28;19921;-77
2023/12/16 09:24:14;;;;;;;;;;;;;;;6.88;100.00;103875.78;5051266;28;19924;-77
2023/12/16 09:26:39;;;;;;;;;;;;;;;6.98;100.00;103878.88;5070587;28;19916;-77
2023/12/16 09:29:05;;;;;;;;;;;;;;;7.03;100.00;103882.63;5069997;28;19924;-74
2023/12/16 09:31:31;;;;;;;;;;;;;;;7.02;100.00;103881.69;5049638;28;20015;-76
2023/12/16 09:33:57;;;;;;;;;;;;;;;7.06;100.00;103888.00;5049851;28;20024;-76
2023/12/16 09:36:26;;;;;;;;;;;;;;;7.06;100.00;103893.22;5053296;28;19928;-75
2023/12/16 09:38:55;;;;;;;;;;;;;;;7.12;100.00;103901.34;5069307;28;19913;-75
2023/12/16 09:41:24;;;;;;;;;;;;;;;7.16;100.00;103905.00;5072391;28;20271;-77
2023/12/16 09:43:51;;;;;;;;;;;;;;;7.21;100.00;103906.13;5072900;28;19970;-77
2023/12/16 09:46:18;;;;;;;;;;;;;;;7.27;100.00;103909.06;5087992;28;19913;-78
2023/12/16 09:48:43;;;;;;;;;;;;;;;7.31;100.00;103912.72;5081674;28;20404;-75
2023/12/16 09:51:09;;;;;;;;;;;;;;;7.38;100.00;103915.72;5055704;28;19925;-76
2023/12/16 09:53:34;;;;;;;;;;;;;;;7.43;100.00;103913.34;5054522;28;19924;-77
2023/12/16 09:55:59;;;;;;;;;;;;;;;7.51;100.00;103909.38;5073306;28;19922;-77
2023/12/16 09:58:25;;;;;;;;;;;;;;;7.57;100.00;103904.50;5050993;28;19940;-77
2023/12/16 10:00:51;;;;;;;;;;;;;;;7.65;100.00;103909.22;5041151;28;20344;-74
2023/12/16 10:03:17;;;;;;;;;;;;;;;7.75;100.00;103921.88;5054996;28;19917;-77
2023/12/16 10:05:43;;;;;;;;;;;;;;;7.81;100.00;103914.34;5068019;28;19978;-74
2023/12/16 10:08:09;;;;;;;;;;;;;;;7.84;100.00;103914.50;5071712;28;20004;-74
2023/12/16 10:10:34;;;;;;;;;;;;;;;7.87;100.00;103919.88;5044453;28;20015;-74
2023/12/16 10:13:04;;;;;;;;;;;;;;;7.87;100.00;103922.47;5067278;28;19920;-76
2023/12/16 10:15:32;;;;;;;;;;;;;;;7.89;100.00;103920.84;5069286;28;19955;-76
2023/12/16 10:18:02;;;;;;;;;;;;;;;7.91;100.00;103921.81;5066898;28;20019;-77
2023/12/16 10:20:30;;;;;;;;;;;;;;;7.93;100.00;103927.09;5066767;28;19948;-77
2023/12/16 10:22:59;;;;;;;;;;;;;;;7.94;100.00;103921.97;5055034;28;20366;-78
2023/12/16 10:25:25;;;;;;;;;;;;;;;7.93;100.00;103925.41;5071689;28;19917;-76
2023/12/16 10:27:58;;;;;;;;;;;;;;;7.91;100.00;103921.81;5068949;28;19920;-78
2023/12/16 10:30:24;;;;;;;;;;;;;;;7.89;100.00;103925.19;5062293;28;19920;-75
2023/12/16 10:32:50;;;;;;;;;;;;;;;7.85;100.00;103918.03;5072027;28;19917;-75
2023/12/16 10:35:16;;;;;;;;;;;;;;;7.82;100.00;103918.75;5061695;28;20393;-75
2023/12/16 10:37:47;;;;;;;;;;;;;;;7.83;100.00;103922.25;5061499;28;19924;-75
2023/12/16 10:40:14;;;;;;;;;;;;;;;7.83;100.00;103930.09;5062295;28;19927;-78
2023/12/16 10:42:40;;;;;;;;;;;;;;;7.83;100.00;103920.56;5065573;28;19920;-77
2023/12/16 10:45:06;;;;;;;;;;;;;;;7.84;100.00;103916.22;5051604;28;19917;-75
2023/12/16 10:47:32;;;;;;;;;;;;;;;7.88;100.00;103911.22;5069358;28;20243;-75
2023/12/16 10:50:01;;;;;;;;;;;;;;;7.90;100.00;103906.97;5054799;28;20011;-75
2023/12/16 10:52:30;;;;;;;;;;;;;;;7.88;100.00;103905.09;5069962;28;19931;-76
2023/12/16 10:55:00;;;;;;;;;;;;;;;7.90;100.00;103906.06;5060296;28;19917;-76
2023/12/16 10:57:26;;;;;;;;;;;;;;;7.95;100.00;103901.97;5069801;28;19921;-77
2023/12/16 10:59:58;;;;;;;;;;;;;;;7.94;100.00;103901.09;5066520;28;19916;-77
2023/12/16 11:02:26;;;;;;;;;;;;;;;7.94;100.00;103908.00;5069471;28;20443;-77
2023/12/16 11:05:13;;;;;;;;;;;;;;;7.93;100.00;103899.28;5041482;28;19955;-75
2023/12/16 11:07:39;;;;;;;;;;;;;;;7.96;100.00;103899.44;5058508;28;20282;-75
2023/12/16 11:10:05;;;;;;;;;;;;;;;7.97;100.00;103890.78;5036137;28;19929;-76
2023/12/16 11:12:35;;;;;;;;;;;;;;;8.02;100.00;103893.63;5050960;28;19925;-77
2023/12/16 11:15:05;;;;;;;;;;;;;;;8.03;100.00;103894.50;5066263;28;19927;-77
2023/12/16 11:17:53;;;;;;;;;;;;;;;8.04;100.00;103888.47;5082452;28;19920;-76
2023/12/16 11:20:21;;;;;;;;;;;;;;;8.05;100.00;103888.53;5066668;28;19912;-78
2023/12/16 11:22:51;;;;;;;;;;;;;;;8.08;100.00;103882.56;5067719;28;20443;-77
2023/12/16 11:25:20;;;;;;;;;;;;;;;8.09;100.00;103876.53;5060128;28;20030;-75
2023/12/16 11:27:49;;;;;;;;;;;;;;;8.11;100.00;103867.03;5069096;28;19920;-75
2023/12/16 11:30:15;;;;;;;;;;;;;;;8.10;100.00;103875.69;5052425;28;20305;-78
2023/12/16 11:32:48;;;;;;;;;;;;;;;8.10;100.00;103880.91;5065433;28;19974;-78
2023/12/16 11:35:18;;;;;;;;;;;;;;;8.09;100.00;103872.19;5054904;28;19925;-77
2023/12/16 11:37:44;;;;;;;;;;;;;;;8.05;100.00;103867.63;5068968;28;19920;-77
2023/12/16 11:40:30;;;;;;;;;;;;;;;8.05;100.00;103864.16;5062119;28;19930;-77
2023/12/16 11:43:02;;;;;;;;;;;;;;;8.07;100.00;103860.75;5068261;28;19921;-77
2023/12/16 11:45:36;;;;;;;;;;;;;;;8.11;100.00;103861.81;5064448;28;19928;-78
2023/12/16 11:48:01;;;;;;;;;;;;;;;8.12;100.00;103855.78;5052008;28;20327;-77
2023/12/16 11:50:30;;;;;;;;;;;;;;;8.14;100.00;103852.38;5044834;28;20003;-75
2023/12/16 11:52:56;;;;;;;;;;;;;;;8.15;100.00;103855.91;5067439;28;19978;-75
2023/12/16 11:55:22;;;;;;;;;;;;;;;8.14;100.00;103848.88;5042880;28;20275;-77
2023/12/16 11:57:48;;;;;;;;;;;;;;;8.16;100.00;103849.88;5059949;28;19924;-74
2023/12/16 12:00:16;;;;;;;;;;;;;;;8.14;100.00;103841.06;5068160;28;19916;-75
2023/12/16 12:02:42;;;;;;;;;;;;;;;8.13;100.00;103842.78;5066224;28;20428;-77
2023/12/16 12:05:11;;;;;;;;;;;;;;;8.12;100.00;103842.72;5044737;28;19928;-76
2023/12/16 12:07:37;;;;;;;;;;;;;;;8.08;100.00;103840.78;5060516;28;19921;-75
2023/12/16 12:10:02;;;;;;;;;;;;;;;8.07;100.00;103838.97;5061223;28;20446;-75
2023/12/16 12:12:28;;;;;;;;;;;;;;;8.06;100.00;103837.19;5048113;28;19925;-78
2023/12/16 12:14:53;;;;;;;;;;;;;;;8.07;100.00;103836.38;5041350;28;19925;-75
2023/12/16 12:17:22;;;;;;;;;;;;;;;8.07;100.00;103833.75;5039703;28;19921;-76
2023/12/16 12:19:48;;;;;;;;;;;;;;;8.09;100.00;103833.00;5065350;28;20323;-75
2023/12/16 12:22:15;;;;;;;;;;;;;;;8.10;100.00;103833.88;5057866;28;19921;-76
2023/12/16 12:24:43;;;;;;;;;;;;;;;8.10;100.00;103832.19;5050720;28;20366;-76
2023/12/16 12:27:08;;;;;;;;;;;;;;;8.12;100.00;103837.50;5058056;28;19989;-77
2023/12/16 12:29:52;;;;;;;;;;;;;;;8.11;100.00;103825.25;5042476;28;20337;-75
2023/12/16 12:32:19;;;;;;;;;;;;;;;8.11;100.00;103831.34;5062211;28;20362;-75
2023/12/16 12:34:45;;;;;;;;;;;;;;;8.11;100.00;103830.47;5062459;28;20011;-75
2023/12/16 12:37:12;;;;;;;;;;;;;;;8.11;100.00;103810.44;5050878;28;23232;-75
2023/12/16 12:39:38;;;;;;;;;;;;;;;8.11;100.00;103820.03;5045700;28;19917;-75
2023/12/16 12:42:03;;;;;;;;;;;;;;;8.10;100.00;103819.13;5067867;28;20374;-78
2023/12/16 12:44:30;;;;;;;;;;;;;;;8.11;100.00;103814.78;5059514;28;19945;-78
2023/12/16 12:46:56;;;;;;;;;;;;;;;8.07;100.00;103810.25;5038899;28;20321;-75
2023/12/16 12:49:29;;;;;;;;;;;;;;;8.05;100.00;103799.72;5066441;28;20019;-76
2023/12/16 12:51:55;;;;;;;;;;;;;;;8.06;100.00;103798.00;5052277;28;19917;-78
2023/12/16 12:54:20;;;;;;;;;;;;;;;8.03;100.00;103783.13;5053199;28;20385;-75
2023/12/16 12:56:47;;;;;;;;;;;;;;;8.03;100.00;103790.94;5050101;28;19916;-75
2023/12/16 12:59:13;;;;;;;;;;;;;;;8.02;100.00;103786.53;5054677;28;19951;-75
2023/12/16 13:01:38;;;;;;;;;;;;;;;8.03;100.00;103790.03;5053632;28;19949;-74
2023/12/16 13:04:04;;;;;;;;;;;;;;;7.97;100.00;103778.50;5053433;28;20373;-77
2023/12/16 13:06:29;;;;;;;;;;;;;;;7.95;100.00;103774.91;5069955;28;19917;-78
2023/12/16 13:08:55;;;;;;;;;;;;;;;7.94;100.00;103767.91;5041886;28;19921;-78
2023/12/16 13:11:21;;;;;;;;;;;;;;;7.96;100.00;103760.16;5039467;28;20264;-78
2023/12/16 13:13:46;;;;;;;;;;;;;;;7.96;100.00;103765.38;5040357;28;20302;-77
2023/12/16 13:16:13;;;;;;;;;;;;;;;7.95;100.00;103756.63;5064259;28;20011;-77
2023/12/16 13:18:42;;;;;;;;;;;;;;;7.97;100.00;103760.22;5052615;28;20015;-78
2023/12/16 13:21:11;;;;;;;;;;;;;;;7.97;100.00;103749.78;5050513;28;19931;-78
2023/12/16 13:23:39;;;;;;;;;;;;;;;7.99;100.00;103749.84;5073498;28;20366;-75
2023/12/16 13:26:13;;;;;;;;;;;;;;;8.00;100.00;103755.94;5073638;28;20365;-77
2023/12/16 13:28:40;;;;;;;;;;;;;;;8.00;100.00;103745.50;5057477;28;19986;-78
2023/12/16 13:31:06;;;;;;;;;;;;;;;8.01;100.00;103744.69;5063760;28;20014;-76
2023/12/16 13:33:32;;;;;;;;;;;;;;;8.03;100.00;103750.84;5064105;28;20063;-77
2023/12/16 13:35:57;;;;;;;;;;;;;;;8.05;100.00;103749.22;5053818;28;20354;-75
2023/12/16 13:38:24;;;;;;;;;;;;;;;8.07;100.00;103739.72;5042197;28;19921;-77